createdAt,value
2023-04-09T00:00:21.656Z,26.05
2023-04-09T00:02:49.244Z,26.21
2023-04-09T00:05:16.799Z,26.03
2023-04-09T00:07:44.712Z,26.17
2023-04-09T00:10:12.320Z,26.48
2023-04-09T00:12:39.892Z,26.24
2023-04-09T00:15:11.078Z,26.72
2023-04-09T00:17:40.641Z,26.61
2023-04-09T00:20:08.805Z,26.53
2023-04-09T00:22:36.437Z,26.79
2023-04-09T00:25:04.028Z,26.38
2023-04-09T00:27:31.696Z,26.76
2023-04-09T00:29:59.274Z,26.42
2023-04-09T00:32:26.994Z,26.63
2023-04-09T00:34:54.431Z,26.77
2023-04-09T00:37:21.887Z,26.76
2023-04-09T00:39:49.406Z,26.87
2023-04-09T00:42:16.860Z,27.20
2023-04-09T00:44:44.931Z,26.90
2023-04-09T00:47:12.807Z,26.84
2023-04-09T00:49:40.300Z,26.82
2023-04-09T00:52:08.218Z,26.96
2023-04-09T00:54:35.692Z,27.30
2023-04-09T00:57:03.977Z,27.09
2023-04-09T00:59:32.054Z,27.06
2023-04-09T01:01:59.582Z,27.04
2023-04-09T01:04:27.169Z,26.92
2023-04-09T01:07:19.085Z,27.28
2023-04-09T01:10:28.952Z,27.04
2023-04-09T01:13:03.790Z,27.16
2023-04-09T01:15:37.369Z,27.00
2023-04-09T01:18:24.176Z,27.36
2023-04-09T01:21:14.817Z,27.02
2023-04-09T01:24:15.778Z,27.16
2023-04-09T01:27:04.363Z,27.00
2023-04-09T01:29:54.995Z,26.97
2023-04-09T01:32:23.434Z,27.12
2023-04-09T01:34:52.234Z,27.21
2023-04-09T01:37:20.941Z,27.01
2023-04-09T01:39:48.718Z,26.55
2023-04-09T01:42:16.966Z,26.61
2023-04-09T01:44:47.063Z,26.87
2023-04-09T01:47:14.769Z,26.74
2023-04-09T01:49:43.651Z,27.17
2023-04-09T01:52:12.139Z,26.92
2023-04-09T01:54:39.718Z,27.07
2023-04-09T01:57:07.205Z,26.90
2023-04-09T01:59:34.735Z,27.01
2023-04-09T02:02:08.849Z,26.76
2023-04-09T02:04:41.310Z,27.03
2023-04-09T02:07:36.935Z,26.74
2023-04-09T02:10:06.796Z,26.71
2023-04-09T02:12:36.873Z,26.46
2023-04-09T02:15:07.116Z,26.07
2023-04-09T02:17:35.230Z,26.42
2023-04-09T02:20:02.799Z,25.98
2023-04-09T02:22:30.565Z,26.46
2023-04-09T02:25:00.087Z,25.86
2023-04-09T02:27:27.588Z,25.06
2023-04-09T02:29:54.990Z,24.15
2023-04-09T02:32:22.629Z,22.74
2023-04-09T02:34:50.961Z,22.20
2023-04-09T02:37:18.744Z,21.12
2023-04-09T02:39:47.893Z,20.71
2023-04-09T02:42:15.579Z,20.34
2023-04-09T02:44:44.571Z,19.30
2023-04-09T02:47:13.932Z,19.14
2023-04-09T02:49:41.621Z,18.96
2023-04-09T02:52:13.852Z,18.13
2023-04-09T02:54:41.732Z,17.85
2023-04-09T02:57:09.200Z,17.81
2023-04-09T02:59:39.151Z,17.17
2023-04-09T03:02:07.099Z,16.85
2023-04-09T03:04:34.728Z,16.35
2023-04-09T03:07:02.326Z,16.11
2023-04-09T03:09:31.147Z,15.78
2023-04-09T03:12:10.172Z,15.52
2023-04-09T03:15:31.336Z,15.25
2023-04-09T03:17:43.984Z,15.15
2023-04-09T03:20:24.983Z,15.10
2023-04-09T03:22:59.438Z,15.01
2023-04-09T03:30:03.139Z,13.98
2023-04-09T03:32:45.130Z,14.27
2023-04-09T03:35:14.249Z,13.65
2023-04-09T03:37:44.169Z,12.90
2023-04-09T03:40:17.401Z,12.79
2023-04-09T03:42:45.033Z,12.77
2023-04-09T03:45:15.460Z,12.40
2023-04-09T03:47:46.774Z,12.30
2023-04-09T03:50:14.830Z,12.14
2023-04-09T03:52:52.622Z,11.99
2023-04-09T03:55:20.425Z,11.55
2023-04-09T03:57:49.519Z,11.41
2023-04-09T04:00:26.281Z,11.40
2023-04-09T04:03:24.258Z,10.60
2023-04-09T04:06:07.760Z,11.21
2023-04-09T04:08:45.827Z,10.97
2023-04-09T04:11:13.372Z,10.67
2023-04-09T04:13:41.249Z,10.51
2023-04-09T04:16:10.766Z,9.80
2023-04-09T04:18:40.736Z,9.30
2023-04-09T04:21:13.938Z,9.42
2023-04-09T04:23:44.831Z,9.32
2023-04-09T04:26:19.691Z,8.82
2023-04-09T04:28:47.272Z,9.00
2023-04-09T04:31:26.295Z,8.83
2023-04-09T04:33:58.415Z,8.27
2023-04-09T04:36:26.533Z,8.17
2023-04-09T04:38:54.359Z,8.05
2023-04-09T04:41:30.096Z,8.02
2023-04-09T04:44:08.758Z,8.33
2023-04-09T04:46:37.069Z,8.22
2023-04-09T04:49:05.325Z,7.97
2023-04-09T04:51:37.504Z,7.88
2023-04-09T04:54:09.662Z,7.61
2023-04-09T04:56:37.816Z,7.47
2023-04-09T04:59:14.501Z,7.73
2023-04-09T05:01:55.988Z,7.67
2023-04-09T05:04:23.924Z,7.32
2023-04-09T05:06:51.765Z,7.32
2023-04-09T05:09:22.634Z,7.31
2023-04-09T05:11:59.988Z,7.06
2023-04-09T05:14:27.703Z,7.26
2023-04-09T05:16:55.338Z,7.03
2023-04-09T05:19:28.373Z,7.09
2023-04-09T05:22:00.699Z,7.21
2023-04-09T05:24:29.570Z,7.02
2023-04-09T05:26:57.937Z,6.95
2023-04-09T05:29:26.456Z,6.75
2023-04-09T05:31:56.260Z,7.29
2023-04-09T05:34:41.738Z,6.55
2023-04-09T05:37:11.785Z,6.93
2023-04-09T05:39:40.124Z,6.63
2023-04-09T05:42:07.617Z,6.75
2023-04-09T05:44:56.034Z,7.09
2023-04-09T05:47:24.801Z,6.42
2023-04-09T05:50:12.528Z,6.37
2023-04-09T05:52:40.600Z,6.20
2023-04-09T05:55:10.132Z,6.09
2023-04-09T05:57:45.930Z,6.65
2023-04-09T06:00:13.943Z,6.33
2023-04-09T06:02:44.760Z,5.98
2023-04-09T06:05:12.384Z,6.50
2023-04-09T06:07:40.269Z,5.85
2023-04-09T06:10:09.003Z,6.35
2023-04-09T06:12:36.784Z,6.23
2023-04-09T06:15:05.873Z,6.39
2023-04-09T06:17:33.789Z,6.02
2023-04-09T06:20:01.298Z,6.25
2023-04-09T06:22:30.508Z,6.19
2023-04-09T06:24:57.991Z,6.00
2023-04-09T06:27:25.523Z,5.96
2023-04-09T06:29:53.009Z,5.52
2023-04-09T06:32:20.544Z,6.32
2023-04-09T06:34:48.636Z,6.06
2023-04-09T06:37:16.224Z,6.49
2023-04-09T06:39:50.667Z,6.60
2023-04-09T06:42:27.052Z,6.29
2023-04-09T06:45:17.870Z,6.19
2023-04-09T06:47:46.695Z,6.24
2023-04-09T06:50:14.246Z,6.42
2023-04-09T06:52:42.306Z,6.57
2023-04-09T06:55:10.158Z,6.04
2023-04-09T06:57:38.819Z,6.35
2023-04-09T07:00:07.693Z,6.24
2023-04-09T07:02:35.499Z,6.20
2023-04-09T07:05:04.417Z,6.47
2023-04-09T07:07:32.128Z,6.21
2023-04-09T07:09:59.846Z,6.56
2023-04-09T07:12:34.811Z,6.43
2023-04-09T07:15:04.063Z,6.50
2023-04-09T07:17:32.495Z,6.44
2023-04-09T07:20:00.283Z,6.37
2023-04-09T07:22:30.689Z,6.68
2023-04-09T07:24:58.413Z,6.43
2023-04-09T07:27:27.912Z,6.66
2023-04-09T07:29:57.133Z,6.89
2023-04-09T07:32:25.798Z,7.24
2023-04-09T07:34:54.414Z,7.10
2023-04-09T07:37:21.968Z,7.59
2023-04-09T07:39:51.522Z,7.44
2023-04-09T07:42:19.271Z,7.81
2023-04-09T07:44:48.586Z,7.90
2023-04-09T07:47:16.355Z,8.07
2023-04-09T07:49:43.913Z,8.43
2023-04-09T07:52:11.750Z,8.26
2023-04-09T07:54:39.285Z,8.38
2023-04-09T07:57:07.271Z,8.72
2023-04-09T07:59:35.449Z,8.22
2023-04-09T08:02:02.982Z,9.02
2023-04-09T08:04:30.924Z,9.03
2023-04-09T08:06:58.542Z,9.44
2023-04-09T08:09:26.336Z,9.59
2023-04-09T08:11:53.879Z,9.38
2023-04-09T08:14:21.631Z,9.39
2023-04-09T08:16:50.811Z,9.61
2023-04-09T08:19:20.498Z,9.50
2023-04-09T08:21:49.859Z,9.92
2023-04-09T08:24:17.612Z,9.88
2023-04-09T08:26:45.560Z,10.06
2023-04-09T08:29:14.004Z,10.55
2023-04-09T08:31:42.699Z,10.56
2023-04-09T08:34:10.372Z,10.44
2023-04-09T08:36:37.948Z,10.75
2023-04-09T08:39:05.531Z,10.64
2023-04-09T08:41:33.266Z,11.15
2023-04-09T08:44:01.125Z,11.14
2023-04-09T08:46:29.045Z,11.65
2023-04-09T08:48:57.448Z,12.17
2023-04-09T08:51:25.367Z,12.02
2023-04-09T08:54:03.650Z,11.86
2023-04-09T08:56:31.921Z,11.89
2023-04-09T08:58:59.605Z,12.38
2023-04-09T09:01:29.800Z,12.52
2023-04-09T09:04:01.386Z,12.65
2023-04-09T09:06:33.486Z,12.59
2023-04-09T09:09:05.733Z,13.03
2023-04-09T09:11:34.909Z,13.72
2023-04-09T09:14:12.901Z,13.39
2023-04-09T09:16:45.289Z,13.50
2023-04-09T09:19:25.170Z,13.21
2023-04-09T09:22:02.093Z,13.52
2023-04-09T09:24:30.002Z,13.72
2023-04-09T09:26:59.084Z,14.27
2023-04-09T09:29:27.001Z,13.90
2023-04-09T09:31:55.930Z,14.47
2023-04-09T09:34:25.092Z,14.44
2023-04-09T09:36:52.581Z,14.64
2023-04-09T09:39:20.463Z,15.14
2023-04-09T09:41:49.014Z,15.19
2023-04-09T09:44:34.044Z,15.22
2023-04-09T09:47:04.381Z,15.73
2023-04-09T09:49:31.872Z,15.92
2023-04-09T09:52:03.831Z,16.13
2023-04-09T09:54:42.716Z,16.31
2023-04-09T09:57:13.901Z,16.21
2023-04-09T09:59:48.221Z,16.90
2023-04-09T10:02:24.909Z,16.55
2023-04-09T10:04:55.315Z,16.60
2023-04-09T10:07:24.429Z,16.57
2023-04-09T10:09:54.685Z,16.63
2023-04-09T10:12:26.289Z,16.99
2023-04-09T10:15:00.793Z,16.92
2023-04-09T10:17:28.441Z,17.37
2023-04-09T10:20:08.097Z,17.40
2023-04-09T10:22:36.692Z,17.49
2023-04-09T10:25:05.215Z,17.68
2023-04-09T10:27:33.132Z,18.29
2023-04-09T10:30:02.063Z,17.60
2023-04-09T10:32:36.437Z,17.89
2023-04-09T10:35:04.782Z,17.87
2023-04-09T10:37:32.334Z,17.69
2023-04-09T10:40:00.180Z,17.78
2023-04-09T10:42:35.782Z,17.63
2023-04-09T10:45:11.147Z,18.05
2023-04-09T10:47:44.180Z,17.88
2023-04-09T10:50:22.302Z,17.84
2023-04-09T10:53:00.980Z,17.96
2023-04-09T10:55:42.164Z,17.93
2023-04-09T10:58:13.097Z,17.99
2023-04-09T11:00:49.061Z,17.89
2023-04-09T11:03:33.105Z,17.70
2023-04-09T11:06:10.593Z,17.95
2023-04-09T11:08:39.470Z,17.82
2023-04-09T11:11:07.085Z,17.91
2023-04-09T11:13:34.791Z,17.95
2023-04-09T11:16:07.336Z,17.80
2023-04-09T11:18:37.399Z,18.17
2023-04-09T11:21:05.204Z,18.05
2023-04-09T11:23:33.417Z,18.08
2023-04-09T11:26:02.396Z,18.13
2023-04-09T11:28:29.950Z,17.94
2023-04-09T11:30:57.414Z,17.89
2023-04-09T11:33:32.947Z,18.17
2023-04-09T11:36:00.515Z,18.17
2023-04-09T11:38:28.040Z,17.99
2023-04-09T11:40:57.980Z,18.24
2023-04-09T11:43:25.625Z,18.29
2023-04-09T11:45:53.957Z,18.44
2023-04-09T11:48:23.976Z,18.34
2023-04-09T11:50:51.689Z,18.45
2023-04-09T11:53:20.807Z,18.46
2023-04-09T11:55:52.613Z,18.62
2023-04-09T11:58:26.535Z,18.56
2023-04-09T12:00:59.464Z,18.77
2023-04-09T12:03:31.554Z,18.65
2023-04-09T12:06:04.145Z,18.48
2023-04-09T12:08:35.300Z,18.64
2023-04-09T12:11:10.838Z,18.75
2023-04-09T12:13:43.559Z,18.45
2023-04-09T12:16:15.305Z,18.49
2023-04-09T12:18:47.914Z,18.65
2023-04-09T12:21:16.641Z,18.65
2023-04-09T12:23:45.653Z,18.75
2023-04-09T12:26:13.536Z,18.43
2023-04-09T12:28:41.505Z,18.63
2023-04-09T12:31:12.246Z,18.85
2023-04-09T12:33:40.680Z,18.92
2023-04-09T12:36:08.586Z,18.76
2023-04-09T12:38:36.198Z,18.65
2023-04-09T12:41:03.789Z,18.61
2023-04-09T12:43:31.272Z,18.54
2023-04-09T12:45:58.855Z,18.64
2023-04-09T12:48:27.053Z,18.62
2023-04-09T12:50:54.767Z,18.76
2023-04-09T12:53:22.245Z,18.53
2023-04-09T12:55:49.736Z,18.28
2023-04-09T12:58:17.282Z,18.20
2023-04-09T13:00:44.826Z,18.63
2023-04-09T13:03:12.871Z,18.61
2023-04-09T13:05:40.669Z,18.33
2023-04-09T13:08:08.242Z,18.51
2023-04-09T13:10:36.714Z,18.31
2023-04-09T13:13:04.254Z,18.35
2023-04-09T13:15:31.892Z,18.55
2023-04-09T13:17:59.473Z,18.44
2023-04-09T13:20:27.023Z,18.77
2023-04-09T13:22:54.723Z,18.39
2023-04-09T13:25:22.500Z,18.42
2023-04-09T13:27:49.979Z,18.53
2023-04-09T13:30:17.584Z,18.54
2023-04-09T13:32:45.111Z,18.54
2023-04-09T13:35:12.694Z,18.50
2023-04-09T13:37:40.152Z,18.71
2023-04-09T13:40:09.454Z,18.91
2023-04-09T13:42:37.895Z,18.90
2023-04-09T13:45:06.231Z,19.13
2023-04-09T13:47:33.848Z,18.69
2023-04-09T13:50:01.848Z,19.49
2023-04-09T13:52:30.005Z,19.26
2023-04-09T13:54:57.689Z,19.28
2023-04-09T13:57:25.401Z,19.68
2023-04-09T13:59:53.036Z,19.47
2023-04-09T14:02:21.079Z,19.70
2023-04-09T14:04:48.709Z,19.85
2023-04-09T14:07:16.332Z,19.61
2023-04-09T14:09:44.313Z,19.92
2023-04-09T14:12:11.844Z,19.64
2023-04-09T14:14:39.566Z,20.12
2023-04-09T14:17:14.124Z,20.09
2023-04-09T14:19:51.143Z,20.32
2023-04-09T14:22:19.683Z,20.13
2023-04-09T14:24:47.169Z,19.86
2023-04-09T14:27:14.753Z,20.21
2023-04-09T14:29:42.382Z,20.29
2023-04-09T14:32:10.063Z,20.54
2023-04-09T14:34:37.516Z,20.34
2023-04-09T14:37:05.102Z,20.41
2023-04-09T14:39:32.521Z,20.52
2023-04-09T14:42:00.061Z,20.41
2023-04-09T14:44:27.717Z,20.77
2023-04-09T14:46:55.405Z,20.32
2023-04-09T14:49:23.241Z,20.51
2023-04-09T14:51:50.787Z,20.67
2023-04-09T14:54:18.644Z,20.63
2023-04-09T14:56:46.192Z,20.50
2023-04-09T14:59:14.090Z,20.50
2023-04-09T15:01:41.683Z,20.56
2023-04-09T15:04:09.386Z,20.53
2023-04-09T15:06:37.416Z,20.32
2023-04-09T15:09:04.893Z,20.36
2023-04-09T15:11:41.987Z,20.69
2023-04-09T15:14:12.700Z,20.81
2023-04-09T15:16:40.293Z,20.48
2023-04-09T15:19:08.060Z,20.77
2023-04-09T15:21:35.872Z,20.88
2023-04-09T15:24:04.011Z,20.83
2023-04-09T15:26:33.804Z,21.03
2023-04-09T15:29:05.858Z,20.96
2023-04-09T15:31:33.824Z,21.18
2023-04-09T15:34:01.354Z,21.00
2023-04-09T15:36:30.358Z,21.78
2023-04-09T15:38:58.028Z,21.33
2023-04-09T15:41:27.158Z,21.42
2023-04-09T15:43:54.638Z,21.36
2023-04-09T15:46:22.234Z,21.81
2023-04-09T15:48:49.901Z,21.60
2023-04-09T15:51:17.323Z,21.43
2023-04-09T15:53:45.013Z,21.98
2023-04-09T15:56:16.208Z,21.54
2023-04-09T15:58:43.992Z,21.74
2023-04-09T16:01:11.917Z,22.89
2023-04-09T16:03:42.628Z,22.55
2023-04-09T16:06:13.546Z,22.41
2023-04-09T16:08:41.204Z,23.30
2023-04-09T16:11:08.783Z,24.07
2023-04-09T16:13:36.555Z,23.75
2023-04-09T16:16:04.559Z,23.58
2023-04-09T16:18:32.220Z,22.85
2023-04-09T16:21:00.024Z,22.76
2023-04-09T16:23:29.942Z,22.56
2023-04-09T16:25:58.125Z,22.06
2023-04-09T16:28:26.815Z,22.40
2023-04-09T16:30:54.397Z,22.36
2023-04-09T16:33:22.315Z,21.93
2023-04-09T16:35:50.237Z,21.64
2023-04-09T16:38:17.785Z,21.46
2023-04-09T16:40:45.239Z,21.71
2023-04-09T16:43:12.796Z,21.99
2023-04-09T16:45:40.310Z,21.27
2023-04-09T16:48:12.687Z,21.61
2023-04-09T16:50:40.683Z,21.32
2023-04-09T16:53:08.581Z,21.45
2023-04-09T16:55:36.472Z,21.21
2023-04-09T16:58:03.911Z,21.61
2023-04-09T17:00:32.056Z,21.65
2023-04-09T17:02:59.927Z,21.93
2023-04-09T17:05:27.721Z,22.27
2023-04-09T17:07:55.632Z,21.45
2023-04-09T17:10:24.222Z,22.22
2023-04-09T17:12:52.241Z,21.84
2023-04-09T17:15:19.840Z,22.70
2023-04-09T17:17:49.688Z,22.89
2023-04-09T17:20:17.339Z,22.12
2023-04-09T17:22:45.066Z,22.54
2023-04-09T17:25:12.718Z,22.04
2023-04-09T17:27:40.265Z,21.96
2023-04-09T17:30:08.195Z,22.62
2023-04-09T17:32:36.150Z,23.06
2023-04-09T17:35:04.000Z,22.33
2023-04-09T17:37:31.814Z,22.68
2023-04-09T17:40:00.806Z,21.97
2023-04-09T17:42:29.178Z,22.27
2023-04-09T17:44:56.780Z,22.43
2023-04-09T17:47:24.276Z,22.68
2023-04-09T17:49:52.891Z,23.17
2023-04-09T17:52:20.812Z,22.96
2023-04-09T17:54:50.842Z,22.90
2023-04-09T17:57:18.928Z,23.40
2023-04-09T17:59:46.458Z,23.60
2023-04-09T18:02:14.019Z,23.26
2023-04-09T18:04:42.147Z,23.30
2023-04-09T18:07:09.736Z,23.53
2023-04-09T18:09:39.346Z,23.26
2023-04-09T18:12:07.195Z,24.03
2023-04-09T18:14:34.775Z,23.64
2023-04-09T18:17:02.625Z,23.60
2023-04-09T18:19:30.131Z,24.18
2023-04-09T18:21:57.582Z,24.05
2023-04-09T18:24:26.511Z,23.92
2023-04-09T18:26:54.025Z,23.62
2023-04-09T18:29:21.588Z,23.62
2023-04-09T18:31:49.105Z,24.40
2023-04-09T18:34:17.106Z,24.04
2023-04-09T18:36:44.567Z,23.37
2023-04-09T18:39:15.465Z,23.76
2023-04-09T18:41:43.911Z,23.42
2023-04-09T18:44:11.434Z,23.91
2023-04-09T18:46:39.083Z,23.68
2023-04-09T18:49:06.675Z,23.97
2023-04-09T18:51:34.299Z,23.80
2023-04-09T18:54:07.226Z,24.00
2023-04-09T18:56:34.757Z,24.24
2023-04-09T18:59:02.286Z,24.15
2023-04-09T19:01:31.013Z,24.07
2023-04-09T19:03:58.639Z,23.97
2023-04-09T19:06:28.139Z,24.03
2023-04-09T19:08:59.337Z,23.75
2023-04-09T19:11:27.022Z,23.79
2023-04-09T19:13:54.840Z,24.03
2023-04-09T19:16:22.501Z,24.28
2023-04-09T19:18:50.167Z,23.70
2023-04-09T19:21:18.806Z,23.92
2023-04-09T19:23:47.091Z,23.79
2023-04-09T19:26:14.745Z,23.86
2023-04-09T19:28:42.213Z,24.08
2023-04-09T19:31:09.829Z,24.25
2023-04-09T19:33:37.325Z,23.89
2023-04-09T19:36:05.100Z,23.94
2023-04-09T19:38:32.561Z,23.71
2023-04-09T19:41:00.116Z,24.04
2023-04-09T19:43:27.767Z,24.00
2023-04-09T19:45:55.317Z,24.30
2023-04-09T19:48:22.882Z,24.19
2023-04-09T19:50:50.453Z,23.94
2023-04-09T19:53:18.720Z,24.25
2023-04-09T19:55:46.204Z,24.59
2023-04-09T19:58:13.705Z,24.30
2023-04-09T20:00:41.404Z,24.24
2023-04-09T20:03:09.718Z,24.54
2023-04-09T20:05:37.338Z,24.04
2023-04-09T20:08:05.097Z,24.21
2023-04-09T20:10:32.701Z,24.24
2023-04-09T20:13:00.074Z,24.46
2023-04-09T20:15:27.562Z,24.23
2023-04-09T20:17:55.184Z,24.35
2023-04-09T20:20:22.863Z,24.46
2023-04-09T20:22:56.839Z,24.46
2023-04-09T20:25:25.845Z,24.18
2023-04-09T20:27:54.607Z,24.57
2023-04-09T20:30:22.956Z,24.45
2023-04-09T20:32:50.660Z,24.26
2023-04-09T20:35:18.111Z,24.29
2023-04-09T20:37:45.631Z,24.61
2023-04-09T20:40:13.109Z,24.58
2023-04-09T20:42:44.245Z,24.94
2023-04-09T20:45:11.904Z,24.37
2023-04-09T20:47:39.573Z,24.74
2023-04-09T20:50:07.576Z,24.18
2023-04-09T20:52:35.211Z,24.06
2023-04-09T20:55:02.776Z,24.34
2023-04-09T20:57:30.530Z,24.59
2023-04-09T20:59:58.073Z,24.36
2023-04-09T21:02:26.011Z,24.80
2023-04-09T21:04:53.607Z,24.78
2023-04-09T21:07:21.064Z,24.52
2023-04-09T21:09:48.519Z,24.67
2023-04-09T21:12:16.093Z,25.05
2023-04-09T21:14:43.629Z,25.46
2023-04-09T21:17:11.260Z,24.69
2023-04-09T21:19:38.881Z,24.68
2023-04-09T21:22:06.285Z,24.58
2023-04-09T21:24:35.488Z,24.79
2023-04-09T21:27:07.032Z,24.92
2023-04-09T21:29:37.641Z,24.94
2023-04-09T21:32:05.202Z,24.65
2023-04-09T21:34:32.897Z,24.42
2023-04-09T21:37:03.242Z,25.35
2023-04-09T21:39:30.819Z,24.85
2023-04-09T21:41:58.515Z,25.04
2023-04-09T21:44:26.040Z,24.81
2023-04-09T21:46:53.670Z,25.32
2023-04-09T21:49:21.150Z,24.89
2023-04-09T21:51:48.633Z,25.11
2023-04-09T21:54:16.142Z,25.12
2023-04-09T21:56:43.620Z,24.97
2023-04-09T21:59:11.038Z,25.01
2023-04-09T22:01:38.637Z,25.46
2023-04-09T22:04:06.191Z,25.11
2023-04-09T22:06:33.816Z,25.42
2023-04-09T22:09:02.174Z,25.34
2023-04-09T22:11:30.057Z,25.62
2023-04-09T22:13:58.072Z,25.63
2023-04-09T22:16:26.517Z,25.65
2023-04-09T22:18:54.953Z,25.80
2023-04-09T22:21:22.885Z,25.39
2023-04-09T22:23:50.325Z,25.71
2023-04-09T22:26:17.836Z,25.71
2023-04-09T22:28:45.410Z,25.34
2023-04-09T22:31:12.884Z,25.81
2023-04-09T22:33:40.753Z,25.45
2023-04-09T22:36:08.624Z,25.48
2023-04-09T22:38:36.383Z,25.89
2023-04-09T22:41:03.953Z,25.26
2023-04-09T22:43:31.920Z,24.93
2023-04-09T22:45:59.459Z,25.22
2023-04-09T22:48:27.437Z,25.50
2023-04-09T22:50:55.037Z,25.78
2023-04-09T22:53:22.597Z,25.40
2023-04-09T22:55:54.698Z,25.70
2023-04-09T22:58:22.185Z,25.39
2023-04-09T23:00:50.866Z,25.45
2023-04-09T23:03:18.747Z,25.08
2023-04-09T23:05:46.838Z,25.36
2023-04-09T23:08:14.304Z,25.42
2023-04-09T23:10:41.841Z,25.51
2023-04-09T23:13:11.807Z,25.19
2023-04-09T23:15:39.417Z,24.96
2023-04-09T23:18:06.950Z,25.69
2023-04-09T23:20:35.997Z,25.60
2023-04-09T23:23:03.916Z,25.36
2023-04-09T23:25:31.551Z,25.36
2023-04-09T23:27:58.957Z,25.55
2023-04-09T23:30:26.465Z,25.46
2023-04-09T23:32:55.617Z,25.99
2023-04-09T23:35:24.950Z,25.65
2023-04-09T23:37:52.542Z,26.19
2023-04-09T23:40:20.184Z,25.26
2023-04-09T23:42:49.253Z,25.83
2023-04-09T23:45:16.909Z,25.78
2023-04-09T23:47:44.424Z,25.95
2023-04-09T23:50:12.072Z,26.17
2023-04-09T23:52:39.863Z,25.72
2023-04-09T23:55:11.001Z,26.08
2023-04-09T23:57:40.244Z,25.87
